createdAt,value
2018-07-10T00:02:34.171Z,7.37
2018-07-10T00:06:50.326Z,12.33
2018-07-10T00:11:02.200Z,5.93
2018-07-10T00:15:05.628Z,6.37
2018-07-10T00:19:09.039Z,8.73
2018-07-10T00:23:12.356Z,5.60
2018-07-10T00:27:15.717Z,5.37
2018-07-10T00:31:19.311Z,7.17
2018-07-10T00:35:22.708Z,5.10
2018-07-10T00:39:26.071Z,6.83
2018-07-10T00:43:29.710Z,7.53
2018-07-10T00:47:33.052Z,9.57
2018-07-10T00:51:37.863Z,4.30
2018-07-10T00:55:41.225Z,6.70
2018-07-10T00:59:44.599Z,4.27
2018-07-10T01:03:48.021Z,6.43
2018-07-10T01:07:51.455Z,5.20
2018-07-10T01:11:54.957Z,5.33
2018-07-10T01:15:58.454Z,4.37
2018-07-10T01:20:01.868Z,5.10
2018-07-10T01:24:05.336Z,5.90
2018-07-10T01:28:08.707Z,4.27
2018-07-10T01:32:12.112Z,5.10
2018-07-10T01:36:15.507Z,5.93
2018-07-10T01:40:18.904Z,5.23
2018-07-10T01:44:22.309Z,4.90
2018-07-10T01:48:25.707Z,10.13
2018-07-10T01:52:29.139Z,6.13
2018-07-10T01:56:32.737Z,7.07
2018-07-10T02:00:42.339Z,7.80
2018-07-10T02:04:45.725Z,7.87
2018-07-10T02:08:49.127Z,6.47
2018-07-10T02:12:53.367Z,5.43
2018-07-10T02:16:56.784Z,4.23
2018-07-10T02:21:04.120Z,7.27
2018-07-10T02:25:07.508Z,5.00
2018-07-10T02:29:10.904Z,3.87
2018-07-10T02:33:14.309Z,5.37
2018-07-10T02:37:17.709Z,8.90
2018-07-10T02:41:23.444Z,4.97
2018-07-10T02:45:26.824Z,4.27
2018-07-10T02:49:30.254Z,4.07
2018-07-10T02:53:33.893Z,3.27
2018-07-10T02:57:38.105Z,4.33
2018-07-10T03:01:42.353Z,4.33
2018-07-10T03:05:45.728Z,4.37
2018-07-10T03:09:49.136Z,5.17
2018-07-10T03:13:52.539Z,5.43
2018-07-10T03:17:55.955Z,3.83
2018-07-10T03:21:59.349Z,4.63
2018-07-10T03:26:02.745Z,7.93
2018-07-10T03:30:06.149Z,5.00
2018-07-10T03:34:09.566Z,6.10
2018-07-10T03:38:13.640Z,17.43
2018-07-10T03:42:18.036Z,6.33
2018-07-10T03:46:22.097Z,5.67
2018-07-10T03:50:25.495Z,4.70
2018-07-10T03:54:28.888Z,6.53
2018-07-10T03:58:32.292Z,5.57
2018-07-10T04:02:36.372Z,10.60
2018-07-10T04:06:40.432Z,8.13
2018-07-10T04:10:43.837Z,12.73
2018-07-10T04:14:47.276Z,11.47
2018-07-10T04:18:50.700Z,6.77
2018-07-10T04:22:55.707Z,15.40
2018-07-10T04:27:33.963Z,14.53
2018-07-10T04:31:58.674Z,5.43
2018-07-10T04:36:02.242Z,12.57
2018-07-10T04:40:06.261Z,8.40
2018-07-10T04:44:12.536Z,9.33
2018-07-10T04:48:36.556Z,6.67
2018-07-10T04:52:44.720Z,6.23
2018-07-10T04:56:54.451Z,10.93
2018-07-10T05:01:06.549Z,6.70
2018-07-10T05:05:09.972Z,8.87
2018-07-10T05:09:13.318Z,9.43
2018-07-10T05:13:17.263Z,12.67
2018-07-10T05:17:20.646Z,12.17
2018-07-10T05:21:24.008Z,11.27
2018-07-10T05:25:27.366Z,8.53
2018-07-10T05:29:30.740Z,9.90
2018-07-10T05:33:35.140Z,8.53
2018-07-10T05:37:38.695Z,9.57
2018-07-10T05:41:45.224Z,8.97
2018-07-10T05:45:48.603Z,9.63
2018-07-10T05:49:55.080Z,10.03
2018-07-10T05:53:58.917Z,7.23
2018-07-10T05:58:02.322Z,7.30
2018-07-10T06:02:05.713Z,4.60
2018-07-10T06:06:13.285Z,10.33
2018-07-10T06:10:16.640Z,7.57
2018-07-10T06:14:20.029Z,6.17
2018-07-10T06:18:23.406Z,8.67
2018-07-10T06:22:26.852Z,9.83
2018-07-10T06:26:30.196Z,10.33
2018-07-10T06:30:33.640Z,8.07
2018-07-10T06:34:38.471Z,9.73
2018-07-10T06:38:47.110Z,7.93
2018-07-10T06:43:09.960Z,10.90
2018-07-10T06:47:17.625Z,15.90
2018-07-10T06:51:20.973Z,9.07
2018-07-10T06:55:24.363Z,10.17
2018-07-10T06:59:27.729Z,11.03
2018-07-10T07:03:31.137Z,12.77
2018-07-10T07:07:35.656Z,13.90
2018-07-10T07:11:39.005Z,16.17
2018-07-10T07:15:42.417Z,11.00
2018-07-10T07:19:46.580Z,12.90
2018-07-10T07:23:50.044Z,12.70
2018-07-10T07:27:53.345Z,11.30
2018-07-10T07:31:56.738Z,16.50
2018-07-10T07:36:00.168Z,14.00
2018-07-10T07:40:03.539Z,14.83
2018-07-10T07:44:07.244Z,17.87
2018-07-10T07:48:10.507Z,11.87
2018-07-10T07:52:13.855Z,13.90
2018-07-10T07:56:17.256Z,13.27
2018-07-10T08:00:20.632Z,14.37
2018-07-10T08:04:24.079Z,14.90
2018-07-10T08:08:27.444Z,16.57
2018-07-10T08:12:32.322Z,15.93
2018-07-10T08:16:35.730Z,12.30
2018-07-10T08:20:39.132Z,13.03
2018-07-10T08:24:42.523Z,9.17
2018-07-10T08:28:45.924Z,14.13
2018-07-10T08:32:51.052Z,10.20
2018-07-10T08:36:54.569Z,5.13
2018-07-10T08:40:57.955Z,10.57
2018-07-10T08:45:01.330Z,6.63
2018-07-10T08:49:04.719Z,8.83
2018-07-10T08:53:08.114Z,10.37
2018-07-10T08:57:11.527Z,10.93
2018-07-10T09:01:14.980Z,7.67
2018-07-10T09:05:18.371Z,9.10
2018-07-10T09:09:21.768Z,5.70
2018-07-10T09:13:25.163Z,6.90
2018-07-10T09:17:28.974Z,8.70
2018-07-10T09:21:32.423Z,7.77
2018-07-10T09:25:36.022Z,6.27
2018-07-10T09:29:39.595Z,9.53
2018-07-10T09:33:43.005Z,9.80
2018-07-10T09:37:47.112Z,6.43
2018-07-10T09:41:50.549Z,7.47
2018-07-10T09:45:53.917Z,6.23
2018-07-10T09:49:57.348Z,8.73
2018-07-10T09:54:00.712Z,6.60
2018-07-10T09:58:04.076Z,7.30
2018-07-10T10:02:12.999Z,10.53
2018-07-10T10:06:17.045Z,6.83
2018-07-10T10:10:20.431Z,5.07
2018-07-10T10:14:23.817Z,6.43
2018-07-10T10:18:27.762Z,8.90
2018-07-10T10:22:32.363Z,7.53
2018-07-10T10:26:35.742Z,6.97
2018-07-10T10:30:40.403Z,7.17
2018-07-10T10:34:43.792Z,5.63
2018-07-10T10:38:48.147Z,5.30
2018-07-10T10:42:51.565Z,6.03
2018-07-10T10:46:54.935Z,5.63
2018-07-10T10:50:58.362Z,5.27
2018-07-10T10:55:02.081Z,5.00
2018-07-10T10:59:05.888Z,4.60
2018-07-10T11:03:09.389Z,5.30
2018-07-10T11:07:14.045Z,4.77
2018-07-10T11:11:17.415Z,4.97
2018-07-10T11:15:21.176Z,9.33
2018-07-10T11:19:28.159Z,4.50
2018-07-10T11:23:33.105Z,5.07
2018-07-10T11:27:48.971Z,4.70
2018-07-10T11:31:52.334Z,5.13
2018-07-10T11:35:55.706Z,5.13
2018-07-10T11:39:59.122Z,5.57
2018-07-10T11:44:06.604Z,5.53
2018-07-10T11:48:10.591Z,5.77
2018-07-10T11:52:13.961Z,7.27
2018-07-10T11:56:17.315Z,7.13
2018-07-10T12:00:20.779Z,6.70
2018-07-10T12:04:24.132Z,7.53
2018-07-10T12:08:27.508Z,6.53
2018-07-10T12:12:30.933Z,6.67
2018-07-10T12:16:34.316Z,6.23
2018-07-10T12:20:41.615Z,6.53
2018-07-10T12:24:45.035Z,6.97
2018-07-10T12:28:48.415Z,7.10
2018-07-10T12:32:51.771Z,7.00
2018-07-10T12:36:55.712Z,10.90
2018-07-10T12:40:59.068Z,9.20
2018-07-10T12:45:02.527Z,10.60
2018-07-10T12:49:05.928Z,23.37
2018-07-10T12:53:09.316Z,22.93
2018-07-10T12:57:12.712Z,11.27
2018-07-10T13:01:16.945Z,18.00
2018-07-10T13:05:21.697Z,6.07
2018-07-10T13:09:25.087Z,6.50
2018-07-10T13:13:28.497Z,6.33
2018-07-10T13:17:31.879Z,6.53
2018-07-10T13:21:35.255Z,7.57
2018-07-10T13:25:38.627Z,7.20
2018-07-10T13:29:42.027Z,8.03
2018-07-10T13:33:45.400Z,6.50
2018-07-10T13:37:48.768Z,9.80
2018-07-10T13:41:52.152Z,10.57
2018-07-10T13:45:56.476Z,6.43
2018-07-10T13:49:59.957Z,4.73
2018-07-10T13:54:03.357Z,7.20
2018-07-10T13:58:23.182Z,5.83
2018-07-10T14:02:27.384Z,4.93
2018-07-10T14:06:30.733Z,6.13
2018-07-10T14:10:34.205Z,5.57
2018-07-10T14:14:37.625Z,6.43
2018-07-10T14:18:41.618Z,5.77
2018-07-10T14:22:44.701Z,5.40
2018-07-10T14:26:48.059Z,10.33
2018-07-10T14:30:51.434Z,2.97
2018-07-10T14:34:54.821Z,3.77
2018-07-10T14:38:58.185Z,6.10
2018-07-10T14:43:01.692Z,5.33
2018-07-10T14:47:06.264Z,8.50
2018-07-10T14:51:09.776Z,5.93
2018-07-10T14:55:13.152Z,5.27
2018-07-10T14:59:16.516Z,3.13
2018-07-10T15:03:19.873Z,2.80
2018-07-10T15:07:22.918Z,5.43
2018-07-10T15:11:26.311Z,3.53
2018-07-10T15:15:29.719Z,3.97
2018-07-10T15:19:33.660Z,4.30
2018-07-10T15:23:37.098Z,6.37
2018-07-10T15:27:40.436Z,9.67
2018-07-10T15:31:43.931Z,10.30
2018-07-10T15:35:47.280Z,4.27
2018-07-10T15:39:50.636Z,5.27
2018-07-10T15:43:54.022Z,5.20
2018-07-10T15:47:57.365Z,3.53
2018-07-10T15:52:01.016Z,4.07
2018-07-10T15:56:04.402Z,3.50
2018-07-10T16:00:07.821Z,4.07
2018-07-10T16:04:12.212Z,2.07
2018-07-10T16:08:18.819Z,1.67
2018-07-10T16:12:23.504Z,2.70
2018-07-10T16:16:26.883Z,2.40
2018-07-10T16:20:30.712Z,1.70
2018-07-10T16:24:37.711Z,3.17
2018-07-10T16:28:43.455Z,2.00
2018-07-10T16:32:46.866Z,1.70
2018-07-10T16:36:50.256Z,1.93
2018-07-10T16:40:57.860Z,2.37
2018-07-10T16:45:01.247Z,4.73
2018-07-10T16:49:15.319Z,1.80
2018-07-10T16:53:18.980Z,2.50
2018-07-10T16:57:22.417Z,2.53
2018-07-10T17:01:26.770Z,2.10
2018-07-10T17:05:30.140Z,2.43
2018-07-10T17:09:33.536Z,2.20
2018-07-10T17:13:36.933Z,5.53
2018-07-10T17:17:40.687Z,4.67
2018-07-10T17:21:44.107Z,2.40
2018-07-10T17:25:47.562Z,1.93
2018-07-10T17:29:50.903Z,2.80
2018-07-10T17:33:54.264Z,2.30
2018-07-10T17:37:57.637Z,1.60
2018-07-10T17:42:01.074Z,3.50
2018-07-10T17:46:04.492Z,2.77
2018-07-10T17:50:07.960Z,3.70
2018-07-10T17:54:11.359Z,4.53
2018-07-10T17:58:14.738Z,6.30
2018-07-10T18:02:18.103Z,6.90
2018-07-10T18:06:21.476Z,6.23
2018-07-10T18:10:25.073Z,5.40
2018-07-10T18:14:28.474Z,6.07
2018-07-10T18:18:38.177Z,4.37
2018-07-10T18:22:41.564Z,4.77
2018-07-10T18:26:44.979Z,4.90
2018-07-10T18:30:48.345Z,5.43
2018-07-10T18:34:51.759Z,6.10
2018-07-10T18:38:55.236Z,5.10
2018-07-10T18:42:58.576Z,5.60
2018-07-10T18:47:01.917Z,5.87
2018-07-10T18:51:05.308Z,9.93
2018-07-10T18:55:08.685Z,6.00
2018-07-10T18:59:15.541Z,8.07
2018-07-10T19:03:18.898Z,8.60
2018-07-10T19:07:22.547Z,7.90
2018-07-10T19:11:27.505Z,7.50
2018-07-10T19:15:30.911Z,7.77
2018-07-10T19:19:34.308Z,7.63
2018-07-10T19:23:41.732Z,8.03
2018-07-10T19:27:46.682Z,7.37
2018-07-10T19:31:51.188Z,7.87
2018-07-10T19:35:54.677Z,7.97
2018-07-10T19:39:58.074Z,6.70
2018-07-10T19:44:01.921Z,6.60
2018-07-10T19:48:05.530Z,7.60
2018-07-10T19:52:08.868Z,8.13
2018-07-10T19:56:12.227Z,8.47
2018-07-10T20:00:15.601Z,10.40
2018-07-10T20:04:24.639Z,8.30
2018-07-10T20:08:28.009Z,8.63
2018-07-10T20:12:38.541Z,8.00
2018-07-10T20:16:51.702Z,7.20
2018-07-10T20:20:59.324Z,7.80
2018-07-10T20:25:06.275Z,7.37
2018-07-10T20:29:24.024Z,9.00
2018-07-10T20:33:34.236Z,7.77
2018-07-10T20:37:39.362Z,7.27
2018-07-10T20:41:45.712Z,9.23
2018-07-10T20:45:51.174Z,11.90
2018-07-10T20:49:58.175Z,8.40
2018-07-10T20:54:11.976Z,8.73
2018-07-10T20:58:17.481Z,9.10
2018-07-10T21:02:31.003Z,9.07
2018-07-10T21:06:51.915Z,8.50
2018-07-10T21:11:05.185Z,9.07
2018-07-10T21:15:13.646Z,10.67
2018-07-10T21:19:30.102Z,13.70
2018-07-10T21:24:43.148Z,9.10
2018-07-10T21:28:52.187Z,8.97
2018-07-10T21:33:00.089Z,9.87
2018-07-10T21:38:18.168Z,9.30
2018-07-10T21:43:36.304Z,9.30
2018-07-10T21:47:55.377Z,9.03
2018-07-10T21:51:58.448Z,9.87
2018-07-10T21:56:01.802Z,8.60
2018-07-10T22:00:05.404Z,8.90
2018-07-10T22:04:08.797Z,8.70
2018-07-10T22:08:11.867Z,9.93
2018-07-10T22:12:19.221Z,9.90
2018-07-10T22:16:22.674Z,8.27
2018-07-10T22:20:26.049Z,8.57
2018-07-10T22:24:29.413Z,8.90
2018-07-10T22:28:32.848Z,7.93
2018-07-10T22:32:44.193Z,12.30
2018-07-10T22:36:47.519Z,11.40
2018-07-10T22:40:50.887Z,8.83
2018-07-10T22:44:58.201Z,9.10
2018-07-10T22:49:05.996Z,8.50
2018-07-10T22:53:09.396Z,10.27
2018-07-10T22:57:13.601Z,15.27
2018-07-10T23:01:16.960Z,11.63
2018-07-10T23:05:20.339Z,16.57
2018-07-10T23:09:23.746Z,20.43
2018-07-10T23:13:27.624Z,19.03
2018-07-10T23:17:31.064Z,11.00
2018-07-10T23:21:35.466Z,11.07
2018-07-10T23:25:38.818Z,8.83
2018-07-10T23:29:42.224Z,25.47
2018-07-10T23:33:48.920Z,16.10
2018-07-10T23:37:56.464Z,18.87
2018-07-10T23:42:04.804Z,31.57
2018-07-10T23:46:14.184Z,21.97
2018-07-10T23:50:21.120Z,19.97
2018-07-10T23:54:24.528Z,18.17
2018-07-10T23:58:27.899Z,26.60
